createdAt,value
2023-09-01T00:01:17.111Z,4.40
2023-09-01T00:04:14.651Z,4.13
2023-09-01T00:06:42.943Z,4.38
2023-09-01T00:09:11.058Z,4.47
2023-09-01T00:11:39.208Z,4.50
2023-09-01T00:14:08.852Z,4.53
2023-09-01T00:16:36.982Z,4.50
2023-09-01T00:19:05.184Z,4.90
2023-09-01T00:21:33.307Z,4.47
2023-09-01T00:24:03.549Z,4.78
2023-09-01T00:26:31.795Z,5.03
2023-09-01T00:28:59.883Z,4.88
2023-09-01T00:31:29.408Z,5.75
2023-09-01T00:33:58.942Z,4.93
2023-09-01T00:36:27.054Z,6.57
2023-09-01T00:38:56.113Z,4.68
2023-09-01T00:41:24.259Z,5.22
2023-09-01T00:43:52.445Z,4.75
2023-09-01T00:46:21.046Z,5.47
2023-09-01T00:48:50.862Z,4.45
2023-09-01T00:51:18.973Z,4.50
2023-09-01T00:53:47.146Z,4.55
2023-09-01T00:56:15.531Z,4.40
2023-09-01T00:58:43.884Z,4.10
2023-09-01T01:01:12.083Z,3.90
2023-09-01T01:03:41.475Z,4.00
2023-09-01T01:06:21.972Z,3.50
2023-09-01T01:09:04.049Z,3.97
2023-09-01T01:11:39.056Z,3.50
2023-09-01T01:14:16.320Z,3.53
2023-09-01T01:16:44.962Z,3.22
2023-09-01T01:19:25.189Z,2.97
2023-09-01T01:21:58.885Z,3.00
2023-09-01T01:24:28.782Z,3.78
2023-09-01T01:26:56.910Z,3.70
2023-09-01T01:29:25.088Z,3.53
2023-09-01T01:31:53.546Z,3.90
2023-09-01T01:34:31.808Z,3.80
2023-09-01T01:37:07.612Z,4.05
2023-09-01T01:39:38.053Z,4.07
2023-09-01T01:42:11.443Z,4.10
2023-09-01T01:44:43.986Z,3.80
2023-09-01T01:47:12.822Z,4.80
2023-09-01T01:49:41.121Z,4.72
2023-09-01T01:52:09.558Z,4.78
2023-09-01T01:54:39.146Z,5.05
2023-09-01T01:57:11.238Z,5.35
2023-09-01T01:59:40.411Z,4.95
2023-09-01T02:02:08.665Z,4.38
2023-09-01T02:04:37.743Z,4.65
2023-09-01T02:07:06.677Z,4.72
2023-09-01T02:09:34.971Z,4.28
2023-09-01T02:12:05.986Z,4.30
2023-09-01T02:14:36.982Z,4.20
2023-09-01T02:17:06.503Z,4.00
2023-09-01T02:19:37.904Z,4.47
2023-09-01T02:22:06.959Z,4.60
2023-09-01T02:24:35.418Z,3.95
2023-09-01T02:27:06.041Z,3.60
2023-09-01T02:29:34.167Z,3.40
2023-09-01T02:32:02.264Z,3.85
2023-09-01T02:34:30.406Z,3.10
2023-09-01T02:36:58.521Z,2.55
2023-09-01T02:39:26.632Z,2.63
2023-09-01T02:41:54.863Z,2.92
2023-09-01T02:44:25.929Z,2.70
2023-09-01T02:46:54.058Z,2.75
2023-09-01T02:49:22.452Z,2.42
2023-09-01T02:51:50.846Z,3.00
2023-09-01T02:54:18.948Z,3.20
2023-09-01T02:56:47.098Z,3.55
2023-09-01T02:59:15.244Z,3.67
2023-09-01T03:01:45.058Z,3.60
2023-09-01T03:04:13.234Z,3.58
2023-09-01T03:06:41.384Z,3.25
2023-09-01T03:09:10.893Z,3.47
2023-09-01T03:11:39.036Z,4.40
2023-09-01T03:14:07.352Z,4.43
2023-09-01T03:16:35.749Z,3.70
2023-09-01T03:19:05.349Z,4.10
2023-09-01T03:21:33.492Z,4.72
2023-09-01T03:24:01.792Z,5.00
2023-09-01T03:26:31.498Z,5.45
2023-09-01T03:29:00.504Z,4.82
2023-09-01T03:31:30.578Z,4.55
2023-09-01T03:34:04.288Z,4.25
2023-09-01T03:36:33.820Z,4.22
2023-09-01T03:39:01.966Z,4.47
2023-09-01T03:41:30.561Z,4.60
2023-09-01T03:43:58.730Z,4.60
2023-09-01T03:46:26.895Z,5.43
2023-09-01T03:48:55.049Z,5.20
2023-09-01T03:51:24.758Z,5.15
2023-09-01T03:53:54.304Z,4.85
2023-09-01T03:56:24.068Z,4.40
2023-09-01T03:58:52.218Z,3.78
2023-09-01T04:01:20.435Z,2.95
2023-09-01T04:03:50.571Z,2.83
2023-09-01T04:06:18.701Z,2.60
2023-09-01T04:08:47.494Z,3.58
2023-09-01T04:11:17.000Z,3.13
2023-09-01T04:13:45.200Z,3.40
2023-09-01T04:16:13.473Z,3.47
2023-09-01T04:18:41.761Z,3.90
2023-09-01T04:21:09.862Z,4.05
2023-09-01T04:23:40.586Z,3.67
2023-09-01T04:26:09.174Z,3.47
2023-09-01T04:28:38.709Z,3.40
2023-09-01T04:31:16.608Z,3.42
2023-09-01T04:33:46.794Z,3.40
2023-09-01T04:36:15.024Z,3.13
2023-09-01T04:38:43.404Z,3.50
2023-09-01T04:41:11.506Z,3.30
2023-09-01T04:43:41.120Z,3.72
2023-09-01T04:46:09.748Z,3.35
2023-09-01T04:48:38.597Z,3.28
2023-09-01T04:51:06.950Z,3.38
2023-09-01T04:53:35.078Z,3.42
2023-09-01T04:56:03.780Z,3.28
2023-09-01T04:58:32.251Z,3.13
2023-09-01T05:01:02.070Z,3.50
2023-09-01T05:03:30.402Z,3.70
2023-09-01T05:05:59.622Z,3.70
2023-09-01T05:08:27.774Z,4.00
2023-09-01T05:10:55.934Z,4.05
2023-09-01T05:13:27.265Z,3.95
2023-09-01T05:15:55.811Z,4.05
2023-09-01T05:18:25.358Z,4.30
2023-09-01T05:20:54.966Z,4.20
2023-09-01T05:23:23.096Z,4.28
2023-09-01T05:25:54.661Z,4.50
2023-09-01T05:28:22.785Z,5.30
2023-09-01T05:30:50.956Z,5.07
2023-09-01T05:33:20.065Z,5.20
2023-09-01T05:35:50.616Z,5.40
2023-09-01T05:38:18.752Z,5.15
2023-09-01T05:40:47.289Z,5.40
2023-09-01T05:43:18.690Z,5.38
2023-09-01T05:45:47.116Z,6.22
2023-09-01T05:48:16.180Z,6.53
2023-09-01T05:50:45.492Z,6.20
2023-09-01T05:53:18.160Z,6.00
2023-09-01T05:55:46.306Z,6.05
2023-09-01T05:58:14.920Z,6.50
2023-09-01T06:00:43.252Z,6.45
2023-09-01T06:03:11.419Z,6.82
2023-09-01T06:05:39.682Z,6.60
2023-09-01T06:08:07.872Z,5.93
2023-09-01T06:10:37.352Z,6.63
2023-09-01T06:13:05.658Z,6.55
2023-09-01T06:15:33.731Z,5.75
2023-09-01T06:18:01.903Z,6.13
2023-09-01T06:20:31.596Z,6.85
2023-09-01T06:22:59.692Z,6.90
2023-09-01T06:25:27.863Z,6.90
2023-09-01T06:27:57.450Z,6.55
2023-09-01T06:30:25.903Z,7.43
2023-09-01T06:32:54.054Z,7.57
2023-09-01T06:35:22.226Z,7.78
2023-09-01T06:37:50.337Z,7.38
2023-09-01T06:40:18.619Z,7.72
2023-09-01T06:42:46.835Z,7.43
2023-09-01T06:45:16.428Z,8.30
2023-09-01T06:47:44.823Z,7.68
2023-09-01T06:50:12.972Z,8.07
2023-09-01T06:52:41.100Z,9.63
2023-09-01T06:55:10.251Z,9.05
2023-09-01T06:57:38.343Z,8.57
2023-09-01T07:00:07.873Z,8.70
2023-09-01T07:02:37.363Z,8.43
2023-09-01T07:05:12.193Z,8.43
2023-09-01T07:07:40.324Z,9.02
2023-09-01T07:10:09.007Z,7.43
2023-09-01T07:12:37.109Z,6.60
2023-09-01T07:15:06.086Z,6.70
2023-09-01T07:17:34.301Z,6.90
2023-09-01T07:20:05.314Z,6.60
2023-09-01T07:22:33.565Z,6.07
2023-09-01T07:25:01.727Z,5.55
2023-09-01T07:27:29.834Z,4.78
2023-09-01T07:29:57.900Z,4.75
2023-09-01T07:32:26.015Z,4.55
2023-09-01T07:34:54.166Z,4.53
2023-09-01T07:37:23.636Z,4.30
2023-09-01T07:39:51.744Z,4.05
2023-09-01T07:42:20.004Z,4.18
2023-09-01T07:44:48.468Z,3.83
2023-09-01T07:47:16.660Z,4.00
2023-09-01T07:49:44.740Z,3.42
2023-09-01T07:52:12.880Z,2.75
2023-09-01T07:54:43.714Z,2.55
2023-09-01T07:57:11.779Z,2.45
2023-09-01T07:59:40.853Z,2.28
2023-09-01T08:02:09.084Z,1.67
2023-09-01T08:04:37.201Z,1.42
2023-09-01T08:07:05.527Z,1.30
2023-09-01T08:09:33.681Z,1.20
2023-09-01T08:12:03.137Z,1.02
2023-09-01T08:14:31.244Z,0.80
2023-09-01T08:16:59.475Z,0.82
2023-09-01T08:19:27.775Z,1.20
2023-09-01T08:21:57.269Z,1.33
2023-09-01T08:24:25.558Z,1.33
2023-09-01T08:26:53.700Z,1.30
2023-09-01T08:29:23.203Z,1.27
2023-09-01T08:31:51.293Z,1.80
2023-09-01T08:34:21.088Z,1.75
2023-09-01T08:36:50.831Z,1.98
2023-09-01T08:39:18.911Z,2.05
2023-09-01T08:41:50.105Z,2.00
2023-09-01T08:44:21.548Z,1.98
2023-09-01T08:46:53.370Z,1.63
2023-09-01T08:49:22.025Z,1.33
2023-09-01T08:51:50.271Z,1.25
2023-09-01T08:54:19.891Z,1.13
2023-09-01T08:56:48.097Z,1.13
2023-09-01T08:59:16.170Z,1.00
2023-09-01T09:01:44.327Z,0.80
2023-09-01T09:04:14.038Z,0.85
2023-09-01T09:06:43.236Z,1.10
2023-09-01T09:09:15.596Z,1.10
2023-09-01T09:11:56.941Z,1.02
2023-09-01T09:14:25.275Z,1.10
2023-09-01T09:16:54.337Z,0.90
2023-09-01T09:19:25.618Z,0.95
2023-09-01T09:22:06.756Z,1.10
2023-09-01T09:24:39.684Z,1.10
2023-09-01T09:27:08.105Z,0.70
2023-09-01T09:29:42.414Z,0.70
2023-09-01T09:32:18.112Z,0.80
2023-09-01T09:35:06.426Z,1.00
2023-09-01T09:37:35.279Z,0.80
2023-09-01T09:40:15.323Z,0.73
2023-09-01T09:42:45.157Z,0.60
2023-09-01T09:45:28.023Z,0.60
2023-09-01T09:48:02.018Z,0.60
2023-09-01T09:50:32.318Z,0.45
2023-09-01T09:53:01.417Z,0.60
2023-09-01T09:55:30.645Z,0.68
2023-09-01T09:58:05.256Z,0.80
2023-09-01T10:00:36.781Z,1.10
2023-09-01T10:03:06.051Z,1.10
2023-09-01T10:05:36.082Z,1.05
2023-09-01T10:08:06.552Z,1.00
2023-09-01T10:10:35.839Z,1.00
2023-09-01T10:13:07.465Z,1.10
2023-09-01T10:15:36.819Z,1.20
2023-09-01T10:18:06.683Z,1.30
2023-09-01T10:20:37.514Z,1.23
2023-09-01T10:23:06.256Z,1.25
2023-09-01T10:25:35.743Z,1.10
2023-09-01T10:28:06.511Z,1.35
2023-09-01T10:30:36.003Z,1.30
2023-09-01T10:33:06.679Z,1.17
2023-09-01T10:35:40.035Z,1.00
2023-09-01T10:38:12.691Z,0.90
2023-09-01T10:40:43.610Z,0.80
2023-09-01T10:43:12.834Z,0.50
2023-09-01T10:45:41.410Z,0.80
2023-09-01T10:48:13.888Z,0.90
2023-09-01T10:50:44.331Z,0.90
2023-09-01T10:53:32.460Z,0.88
2023-09-01T10:56:11.115Z,1.02
2023-09-01T10:58:40.675Z,1.00
2023-09-01T11:01:28.640Z,1.25
2023-09-01T11:03:57.590Z,1.30
2023-09-01T11:06:27.147Z,1.50
2023-09-01T11:09:01.655Z,1.60
2023-09-01T11:11:30.391Z,1.73
2023-09-01T11:14:01.467Z,2.20
2023-09-01T11:16:29.687Z,2.08
2023-09-01T11:19:02.060Z,2.10
2023-09-01T11:21:32.421Z,2.20
2023-09-01T11:24:02.481Z,2.30
2023-09-01T11:26:31.649Z,2.40
2023-09-01T11:29:00.602Z,2.22
2023-09-01T11:31:39.171Z,2.42
2023-09-01T11:34:07.675Z,2.67
2023-09-01T11:36:46.556Z,3.00
2023-09-01T11:39:15.209Z,2.75
2023-09-01T11:41:44.504Z,3.05
2023-09-01T11:44:12.670Z,3.60
2023-09-01T11:46:42.879Z,3.80
2023-09-01T11:49:12.673Z,4.80
2023-09-01T11:51:42.318Z,4.70
2023-09-01T11:54:13.258Z,5.00
2023-09-01T11:56:41.378Z,5.68
2023-09-01T11:59:09.509Z,5.30
2023-09-01T12:01:42.822Z,5.68
2023-09-01T12:04:11.768Z,6.40
2023-09-01T12:06:45.821Z,5.97
2023-09-01T12:09:16.001Z,6.85
2023-09-01T12:11:57.051Z,7.05
2023-09-01T12:14:26.983Z,6.72
2023-09-01T12:16:55.673Z,7.07
2023-09-01T12:19:24.644Z,6.78
2023-09-01T12:21:55.783Z,6.47
2023-09-01T12:24:25.101Z,5.95
2023-09-01T12:26:53.323Z,5.32
2023-09-01T12:29:21.675Z,5.07
2023-09-01T12:31:49.851Z,6.60
2023-09-01T12:34:18.209Z,7.13
2023-09-01T12:36:46.296Z,5.63
2023-09-01T12:39:15.791Z,6.38
2023-09-01T12:41:43.850Z,5.60
2023-09-01T12:44:11.966Z,5.28
2023-09-01T12:46:40.212Z,4.53
2023-09-01T12:49:08.369Z,4.68
2023-09-01T12:51:36.524Z,2.90
2023-09-01T12:54:05.529Z,2.65
2023-09-01T12:56:35.391Z,2.97
2023-09-01T12:59:03.495Z,1.80
2023-09-01T13:01:31.570Z,1.90
2023-09-01T13:03:59.718Z,1.65
2023-09-01T13:06:27.864Z,1.60
2023-09-01T13:08:55.986Z,1.73
2023-09-01T13:11:24.117Z,1.70
2023-09-01T13:13:53.661Z,1.10
2023-09-01T13:16:21.776Z,0.75
2023-09-01T13:18:49.878Z,0.80
2023-09-01T13:21:17.962Z,0.90
2023-09-01T13:23:48.495Z,0.98
2023-09-01T13:26:16.617Z,0.70
2023-09-01T13:28:44.721Z,0.70
2023-09-01T13:31:14.254Z,0.60
2023-09-01T13:33:42.879Z,0.50
2023-09-01T13:36:12.177Z,0.70
2023-09-01T13:38:40.385Z,0.47
2023-09-01T13:41:09.836Z,0.70
2023-09-01T13:43:38.284Z,0.40
2023-09-01T13:46:22.204Z,0.43
2023-09-01T13:48:53.787Z,0.47
2023-09-01T13:51:24.545Z,0.40
2023-09-01T13:53:52.796Z,0.40
2023-09-01T13:56:21.362Z,0.43
2023-09-01T13:58:49.814Z,0.60
2023-09-01T14:01:18.066Z,0.22
2023-09-01T14:03:47.974Z,0.40
2023-09-01T14:06:16.287Z,0.50
2023-09-01T14:08:44.476Z,0.40
2023-09-01T14:11:13.103Z,0.50
2023-09-01T14:13:41.344Z,0.45
2023-09-01T14:16:12.014Z,0.40
2023-09-01T14:18:41.507Z,0.40
2023-09-01T14:21:11.044Z,0.40
2023-09-01T14:23:39.385Z,0.50
2023-09-01T14:26:07.573Z,0.40
2023-09-01T14:28:35.710Z,0.50
2023-09-01T14:31:04.033Z,0.40
2023-09-01T14:33:41.830Z,0.30
2023-09-01T14:36:17.123Z,0.35
2023-09-01T14:38:46.508Z,0.35
2023-09-01T14:41:17.758Z,0.47
2023-09-01T14:43:47.083Z,0.30
2023-09-01T14:46:18.100Z,0.40
2023-09-01T14:48:46.560Z,0.50
2023-09-01T14:51:17.182Z,0.50
2023-09-01T14:53:48.898Z,0.30
2023-09-01T14:56:17.984Z,0.55
2023-09-01T14:58:46.206Z,0.50
2023-09-01T15:01:14.379Z,0.40
2023-09-01T15:03:42.667Z,0.43
2023-09-01T15:06:10.911Z,0.30
2023-09-01T15:08:40.535Z,0.50
2023-09-01T15:11:08.774Z,0.40
2023-09-01T15:13:36.930Z,0.60
2023-09-01T15:16:05.392Z,0.45
2023-09-01T15:18:33.641Z,0.47
2023-09-01T15:21:06.536Z,0.52
2023-09-01T15:23:36.307Z,0.45
2023-09-01T15:26:06.169Z,0.43
2023-09-01T15:28:34.400Z,0.50
2023-09-01T15:31:06.500Z,0.40
2023-09-01T15:33:34.678Z,0.40
2023-09-01T15:36:03.159Z,0.50
2023-09-01T15:38:31.844Z,0.40
2023-09-01T15:41:00.740Z,0.40
2023-09-01T15:43:30.839Z,0.45
2023-09-01T15:45:59.737Z,0.40
2023-09-01T15:48:28.684Z,0.38
2023-09-01T15:50:57.765Z,0.50
2023-09-01T15:53:26.792Z,0.30
2023-09-01T15:55:56.633Z,0.40
2023-09-01T15:58:25.330Z,0.40
2023-09-01T16:01:03.604Z,0.60
2023-09-01T16:03:37.277Z,0.40
2023-09-01T16:06:13.375Z,0.30
2023-09-01T16:08:41.529Z,0.40
2023-09-01T16:11:09.643Z,0.40
2023-09-01T16:13:37.864Z,0.40
2023-09-01T16:16:07.572Z,0.40
2023-09-01T16:18:35.789Z,0.25
2023-09-01T16:21:05.473Z,0.25
2023-09-01T16:23:33.809Z,0.30
2023-09-01T16:26:02.266Z,0.20
2023-09-01T16:28:30.459Z,0.30
2023-09-01T16:30:58.724Z,0.20
2023-09-01T16:33:28.588Z,0.30
2023-09-01T16:35:57.931Z,0.30
2023-09-01T16:38:27.620Z,0.22
2023-09-01T16:40:56.584Z,0.30
2023-09-01T16:43:26.604Z,0.20
2023-09-01T16:45:55.276Z,0.25
2023-09-01T16:48:24.884Z,0.40
2023-09-01T16:50:54.480Z,0.40
2023-09-01T16:53:22.730Z,0.20
2023-09-01T16:55:50.952Z,0.25
2023-09-01T16:58:19.617Z,0.35
2023-09-01T17:00:48.053Z,0.30
2023-09-01T17:03:16.576Z,0.55
2023-09-01T17:05:46.666Z,0.40
2023-09-01T17:08:16.362Z,0.40
2023-09-01T17:10:44.640Z,0.38
2023-09-01T17:13:12.799Z,0.45
2023-09-01T17:15:41.071Z,0.40
2023-09-01T17:18:09.825Z,0.80
2023-09-01T17:20:54.353Z,0.50
2023-09-01T17:23:23.911Z,0.60
2023-09-01T17:25:52.221Z,0.50
2023-09-01T17:28:20.585Z,0.70
2023-09-01T17:30:48.871Z,0.32
2023-09-01T17:33:17.431Z,0.50
2023-09-01T17:35:45.766Z,0.40
2023-09-01T17:38:14.190Z,0.50
2023-09-01T17:40:45.196Z,0.55
2023-09-01T17:43:13.379Z,0.10
2023-09-01T17:45:42.769Z,0.20
2023-09-01T17:48:12.160Z,0.30
2023-09-01T17:50:42.130Z,0.30
2023-09-01T17:53:10.440Z,0.47
2023-09-01T17:55:38.786Z,0.20
2023-09-01T17:58:09.761Z,0.20
2023-09-01T18:00:38.128Z,0.10
2023-09-01T18:03:06.741Z,0.50
2023-09-01T18:05:35.828Z,0.15
2023-09-01T18:08:06.525Z,0.20
2023-09-01T18:10:38.378Z,0.10
2023-09-01T18:13:08.088Z,0.10
2023-09-01T18:15:36.297Z,0.20
2023-09-01T18:18:04.888Z,0.20
2023-09-01T18:20:33.774Z,0.10
2023-09-01T18:23:05.170Z,0.10
2023-09-01T18:25:35.933Z,0.28
2023-09-01T18:28:04.372Z,0.30
2023-09-01T18:30:33.985Z,0.10
2023-09-01T18:33:07.332Z,0.20
2023-09-01T18:35:37.303Z,0.10
2023-09-01T18:38:14.130Z,0.38
2023-09-01T18:40:42.363Z,0.40
2023-09-01T18:43:12.014Z,0.20
2023-09-01T18:45:44.434Z,0.13
2023-09-01T18:48:13.190Z,0.30
2023-09-01T18:50:42.622Z,0.10
2023-09-01T18:53:11.123Z,0.20
2023-09-01T18:55:43.546Z,0.20
2023-09-01T18:58:12.240Z,0.22
2023-09-01T19:00:44.241Z,0.20
2023-09-01T19:03:14.254Z,0.28
2023-09-01T19:05:44.795Z,0.40
2023-09-01T19:08:21.240Z,0.40
2023-09-01T19:10:52.122Z,0.30
2023-09-01T19:13:23.097Z,0.47
2023-09-01T19:15:54.973Z,0.40
2023-09-01T19:18:30.404Z,0.22
2023-09-01T19:21:01.391Z,0.40
2023-09-01T19:23:31.173Z,0.30
2023-09-01T19:26:03.270Z,0.70
2023-09-01T19:28:38.278Z,0.38
2023-09-01T19:31:09.327Z,0.30
2023-09-01T19:33:42.192Z,0.90
2023-09-01T19:36:11.795Z,0.60
2023-09-01T19:38:40.012Z,0.52
2023-09-01T19:41:09.006Z,0.40
2023-09-01T19:43:37.383Z,0.35
2023-09-01T19:46:05.659Z,0.63
2023-09-01T19:48:39.090Z,3.70
2023-09-01T19:51:07.884Z,7.50
2023-09-01T19:53:37.839Z,4.22
2023-09-01T19:56:13.147Z,0.90
2023-09-01T19:58:46.069Z,0.60
2023-09-01T20:01:18.124Z,0.68
2023-09-01T20:03:47.936Z,0.50
2023-09-01T20:06:16.946Z,0.57
2023-09-01T20:08:45.330Z,0.52
2023-09-01T20:11:18.552Z,0.57
2023-09-01T20:13:49.092Z,0.50
2023-09-01T20:16:24.770Z,0.60
2023-09-01T20:18:54.952Z,0.60
2023-09-01T20:21:23.365Z,0.60
2023-09-01T20:23:51.611Z,0.55
2023-09-01T20:26:19.886Z,0.60
2023-09-01T20:28:48.322Z,0.50
2023-09-01T20:31:16.933Z,0.50
2023-09-01T20:33:45.176Z,0.50
2023-09-01T20:36:16.039Z,0.55
2023-09-01T20:38:44.206Z,0.60
2023-09-01T20:41:14.109Z,0.60
2023-09-01T20:43:42.243Z,0.60
2023-09-01T20:46:10.425Z,0.50
2023-09-01T20:48:39.013Z,0.52
2023-09-01T20:51:07.396Z,0.40
2023-09-01T20:53:37.735Z,0.50
2023-09-01T20:56:06.784Z,0.40
2023-09-01T20:58:35.917Z,0.50
2023-09-01T21:01:04.947Z,0.60
2023-09-01T21:03:33.659Z,0.50
2023-09-01T21:06:01.930Z,0.57
2023-09-01T21:08:30.111Z,0.50
2023-09-01T21:11:00.586Z,0.60
2023-09-01T21:13:30.281Z,0.63
2023-09-01T21:15:58.530Z,0.70
2023-09-01T21:18:26.760Z,0.80
2023-09-01T21:20:55.373Z,0.80
2023-09-01T21:23:23.499Z,0.80
2023-09-01T21:25:51.653Z,0.55
2023-09-01T21:28:21.175Z,0.90
2023-09-01T21:30:52.668Z,0.38
2023-09-01T21:33:21.491Z,0.50
2023-09-01T21:35:49.736Z,0.60
2023-09-01T21:38:17.889Z,0.57
2023-09-01T21:40:46.115Z,0.65
2023-09-01T21:43:14.326Z,0.60
2023-09-01T21:45:44.204Z,0.45
2023-09-01T21:48:13.248Z,0.40
2023-09-01T21:50:41.445Z,0.60
2023-09-01T21:53:10.029Z,0.45
2023-09-01T21:55:38.172Z,0.60
2023-09-01T21:58:08.316Z,0.70
2023-09-01T22:00:36.560Z,0.70
2023-09-01T22:03:06.598Z,0.50
2023-09-01T22:05:35.942Z,0.60
2023-09-01T22:08:04.460Z,0.60
2023-09-01T22:10:32.749Z,0.50
2023-09-01T22:13:00.922Z,0.68
2023-09-01T22:15:29.057Z,0.50
2023-09-01T22:17:57.911Z,0.80
2023-09-01T22:20:27.609Z,0.70
2023-09-01T22:22:55.794Z,0.80
2023-09-01T22:25:23.933Z,0.80
2023-09-01T22:27:52.094Z,1.00
2023-09-01T22:30:20.338Z,0.80
2023-09-01T22:32:48.537Z,0.80
2023-09-01T22:35:16.852Z,0.80
2023-09-01T22:37:48.995Z,0.70
2023-09-01T22:40:20.339Z,0.80
2023-09-01T22:42:48.586Z,0.80
2023-09-01T22:45:17.033Z,0.70
2023-09-01T22:47:45.227Z,0.80
2023-09-01T22:50:13.759Z,0.80
2023-09-01T22:52:41.904Z,0.70
2023-09-01T22:55:11.952Z,0.50
2023-09-01T22:57:40.098Z,0.60
2023-09-01T23:00:09.420Z,0.75
2023-09-01T23:02:37.604Z,0.70
2023-09-01T23:05:06.552Z,0.60
2023-09-01T23:07:34.750Z,0.80
2023-09-01T23:10:03.909Z,0.70
2023-09-01T23:12:33.461Z,0.55
2023-09-01T23:15:01.569Z,0.57
2023-09-01T23:17:29.666Z,0.60
2023-09-01T23:19:57.959Z,0.52
2023-09-01T23:22:27.726Z,0.50
2023-09-01T23:24:56.880Z,0.60
2023-09-01T23:27:25.958Z,0.68
2023-09-01T23:29:55.611Z,0.60
2023-09-01T23:32:26.486Z,0.70
2023-09-01T23:34:54.718Z,0.60
2023-09-01T23:37:23.032Z,0.70
2023-09-01T23:39:51.562Z,0.70
2023-09-01T23:42:19.972Z,0.68
2023-09-01T23:44:48.422Z,0.60
2023-09-01T23:47:17.880Z,0.85
2023-09-01T23:49:45.961Z,0.90
2023-09-01T23:52:14.091Z,0.77
2023-09-01T23:54:42.194Z,0.90
2023-09-01T23:57:10.245Z,0.80
2023-09-01T23:59:38.314Z,0.77
